sensor_id;sensor_type;location;lat;lon;timestamp;P1;durP1;ratioP1;P2;durP2;ratioP2
76051;SDS011;64751;48.708;9.710;2022-10-31T00:01:17;4.72;;;2.42;;
76051;SDS011;64751;48.708;9.710;2022-10-31T00:03:47;4.07;;;2.58;;
76051;SDS011;64751;48.708;9.710;2022-10-31T00:06:15;5.40;;;2.60;;
76051;SDS011;64751;48.708;9.710;2022-10-31T00:08:44;6.28;;;3.33;;
76051;SDS011;64751;48.708;9.710;2022-10-31T00:11:12;4.22;;;2.42;;
76051;SDS011;64751;48.708;9.710;2022-10-31T00:13:42;6.38;;;3.10;;
76051;SDS011;64751;48.708;9.710;2022-10-31T00:16:13;6.47;;;2.53;;
76051;SDS011;64751;48.708;9.710;2022-10-31T00:18:42;4.63;;;2.92;;
76051;SDS011;64751;48.708;9.710;2022-10-31T00:21:10;5.03;;;3.67;;
76051;SDS011;64751;48.708;9.710;2022-10-31T00:23:37;6.30;;;2.92;;
76051;SDS011;64751;48.708;9.710;2022-10-31T00:26:05;5.63;;;2.90;;
76051;SDS011;64751;48.708;9.710;2022-10-31T00:28:33;4.38;;;2.63;;
76051;SDS011;64751;48.708;9.710;2022-10-31T00:31:02;3.25;;;2.47;;
76051;SDS011;64751;48.708;9.710;2022-10-31T00:33:33;4.60;;;2.80;;
76051;SDS011;64751;48.708;9.710;2022-10-31T00:36:01;5.55;;;2.60;;
76051;SDS011;64751;48.708;9.710;2022-10-31T00:38:28;6.50;;;2.97;;
76051;SDS011;64751;48.708;9.710;2022-10-31T00:40:56;5.40;;;3.03;;
76051;SDS011;64751;48.708;9.710;2022-10-31T00:43:24;3.22;;;2.35;;
76051;SDS011;64751;48.708;9.710;2022-10-31T00:45:51;3.85;;;2.40;;
76051;SDS011;64751;48.708;9.710;2022-10-31T00:48:21;6.03;;;3.63;;
76051;SDS011;64751;48.708;9.710;2022-10-31T00:50:48;6.22;;;2.90;;
76051;SDS011;64751;48.708;9.710;2022-10-31T00:53:16;5.55;;;3.10;;
76051;SDS011;64751;48.708;9.710;2022-10-31T00:55:44;5.28;;;2.45;;
76051;SDS011;64751;48.708;9.710;2022-10-31T00:58:12;5.60;;;2.72;;
76051;SDS011;64751;48.708;9.710;2022-10-31T01:00:39;3.83;;;2.50;;
76051;SDS011;64751;48.708;9.710;2022-10-31T01:03:07;4.53;;;2.28;;
76051;SDS011;64751;48.708;9.710;2022-10-31T01:05:39;4.30;;;2.30;;
76051;SDS011;64751;48.708;9.710;2022-10-31T01:08:08;4.40;;;2.50;;
76051;SDS011;64751;48.708;9.710;2022-10-31T01:10:35;5.18;;;2.20;;
76051;SDS011;64751;48.708;9.710;2022-10-31T01:13:03;4.88;;;2.60;;
76051;SDS011;64751;48.708;9.710;2022-10-31T01:15:30;4.75;;;2.17;;
76051;SDS011;64751;48.708;9.710;2022-10-31T01:17:58;6.88;;;2.78;;
76051;SDS011;64751;48.708;9.710;2022-10-31T01:20:26;4.85;;;2.65;;
76051;SDS011;64751;48.708;9.710;2022-10-31T01:22:55;6.47;;;3.28;;
76051;SDS011;64751;48.708;9.710;2022-10-31T01:25:23;5.00;;;2.42;;
76051;SDS011;64751;48.708;9.710;2022-10-31T01:27:51;3.92;;;2.70;;
76051;SDS011;64751;48.708;9.710;2022-10-31T01:30:18;4.80;;;2.25;;
76051;SDS011;64751;48.708;9.710;2022-10-31T01:32:46;4.95;;;2.50;;
76051;SDS011;64751;48.708;9.710;2022-10-31T01:35:14;3.33;;;1.95;;
76051;SDS011;64751;48.708;9.710;2022-10-31T01:37:41;3.42;;;1.95;;
76051;SDS011;64751;48.708;9.710;2022-10-31T01:40:10;2.85;;;1.67;;
76051;SDS011;64751;48.708;9.710;2022-10-31T01:42:38;4.22;;;1.90;;
76051;SDS011;64751;48.708;9.710;2022-10-31T01:45:09;4.38;;;1.88;;
76051;SDS011;64751;48.708;9.710;2022-10-31T01:47:38;3.47;;;2.13;;
76051;SDS011;64751;48.708;9.710;2022-10-31T01:50:10;5.15;;;2.30;;
76051;SDS011;64751;48.708;9.710;2022-10-31T01:52:43;3.85;;;2.50;;
76051;SDS011;64751;48.708;9.710;2022-10-31T01:55:15;5.22;;;2.42;;
76051;SDS011;64751;48.708;9.710;2022-10-31T01:57:46;5.03;;;2.35;;
76051;SDS011;64751;48.708;9.710;2022-10-31T02:00:19;4.28;;;2.30;;
76051;SDS011;64751;48.708;9.710;2022-10-31T02:02:50;5.15;;;2.47;;
76051;SDS011;64751;48.708;9.710;2022-10-31T02:05:22;4.97;;;2.65;;
76051;SDS011;64751;48.708;9.710;2022-10-31T02:07:54;4.43;;;1.92;;
76051;SDS011;64751;48.708;9.710;2022-10-31T02:10:31;4.05;;;2.38;;
76051;SDS011;64751;48.708;9.710;2022-10-31T02:13:01;3.05;;;1.85;;
76051;SDS011;64751;48.708;9.710;2022-10-31T02:15:30;3.72;;;2.38;;
76051;SDS011;64751;48.708;9.710;2022-10-31T02:17:59;3.30;;;2.22;;
76051;SDS011;64751;48.708;9.710;2022-10-31T02:20:29;3.72;;;2.13;;
76051;SDS011;64751;48.708;9.710;2022-10-31T02:26:26;3.50;;;1.80;;
76051;SDS011;64751;48.708;9.710;2022-10-31T02:29:12;4.20;;;2.50;;
76051;SDS011;64751;48.708;9.710;2022-10-31T02:32:06;7.13;;;2.00;;
76051;SDS011;64751;48.708;9.710;2022-10-31T02:34:40;3.75;;;1.73;;
76051;SDS011;64751;48.708;9.710;2022-10-31T02:37:16;2.58;;;1.90;;
76051;SDS011;64751;48.708;9.710;2022-10-31T02:39:51;4.15;;;1.92;;
76051;SDS011;64751;48.708;9.710;2022-10-31T02:42:46;2.60;;;1.92;;
76051;SDS011;64751;48.708;9.710;2022-10-31T02:45:21;3.90;;;1.98;;
76051;SDS011;64751;48.708;9.710;2022-10-31T02:47:58;4.05;;;2.30;;
76051;SDS011;64751;48.708;9.710;2022-10-31T02:50:30;7.90;;;2.53;;
76051;SDS011;64751;48.708;9.710;2022-10-31T02:53:02;4.30;;;2.38;;
76051;SDS011;64751;48.708;9.710;2022-10-31T02:55:46;5.45;;;2.67;;
76051;SDS011;64751;48.708;9.710;2022-10-31T02:58:19;4.45;;;2.50;;
76051;SDS011;64751;48.708;9.710;2022-10-31T03:00:53;3.83;;;2.03;;
76051;SDS011;64751;48.708;9.710;2022-10-31T03:03:37;3.97;;;2.28;;
76051;SDS011;64751;48.708;9.710;2022-10-31T03:06:17;3.42;;;2.22;;
76051;SDS011;64751;48.708;9.710;2022-10-31T03:08:54;3.60;;;2.42;;
76051;SDS011;64751;48.708;9.710;2022-10-31T03:11:29;3.30;;;2.45;;
76051;SDS011;64751;48.708;9.710;2022-10-31T03:14:04;5.95;;;2.00;;
76051;SDS011;64751;48.708;9.710;2022-10-31T03:16:39;5.18;;;2.35;;
76051;SDS011;64751;48.708;9.710;2022-10-31T03:19:15;4.20;;;2.42;;
76051;SDS011;64751;48.708;9.710;2022-10-31T03:21:46;4.75;;;2.30;;
76051;SDS011;64751;48.708;9.710;2022-10-31T03:24:17;5.53;;;2.70;;
76051;SDS011;64751;48.708;9.710;2022-10-31T03:26:47;4.15;;;2.22;;
76051;SDS011;64751;48.708;9.710;2022-10-31T03:29:19;5.75;;;2.50;;
76051;SDS011;64751;48.708;9.710;2022-10-31T03:31:51;4.30;;;2.30;;
76051;SDS011;64751;48.708;9.710;2022-10-31T03:34:24;3.95;;;2.38;;
76051;SDS011;64751;48.708;9.710;2022-10-31T03:36:54;4.28;;;2.75;;
76051;SDS011;64751;48.708;9.710;2022-10-31T03:39:24;4.38;;;2.38;;
76051;SDS011;64751;48.708;9.710;2022-10-31T03:41:53;4.32;;;2.45;;
76051;SDS011;64751;48.708;9.710;2022-10-31T03:44:25;4.68;;;2.40;;
76051;SDS011;64751;48.708;9.710;2022-10-31T03:46:59;5.72;;;2.88;;
76051;SDS011;64751;48.708;9.710;2022-10-31T03:49:29;4.90;;;2.55;;
76051;SDS011;64751;48.708;9.710;2022-10-31T03:52:00;4.65;;;2.25;;
76051;SDS011;64751;48.708;9.710;2022-10-31T03:54:36;4.40;;;2.63;;
76051;SDS011;64751;48.708;9.710;2022-10-31T03:57:11;6.80;;;3.00;;
76051;SDS011;64751;48.708;9.710;2022-10-31T03:59:46;3.30;;;1.88;;
76051;SDS011;64751;48.708;9.710;2022-10-31T04:02:20;4.03;;;2.03;;
76051;SDS011;64751;48.708;9.710;2022-10-31T04:04:54;4.13;;;2.05;;
76051;SDS011;64751;48.708;9.710;2022-10-31T04:07:23;3.78;;;1.90;;
76051;SDS011;64751;48.708;9.710;2022-10-31T04:12:24;4.43;;;2.10;;
76051;SDS011;64751;48.708;9.710;2022-10-31T04:15:13;6.95;;;2.50;;
76051;SDS011;64751;48.708;9.710;2022-10-31T04:17:41;2.75;;;2.03;;
76051;SDS011;64751;48.708;9.710;2022-10-31T04:20:16;5.15;;;2.47;;
76051;SDS011;64751;48.708;9.710;2022-10-31T04:22:44;4.85;;;2.90;;
76051;SDS011;64751;48.708;9.710;2022-10-31T04:25:12;2.97;;;2.42;;
76051;SDS011;64751;48.708;9.710;2022-10-31T04:27:40;3.60;;;2.15;;
76051;SDS011;64751;48.708;9.710;2022-10-31T04:30:09;5.50;;;2.40;;
76051;SDS011;64751;48.708;9.710;2022-10-31T04:32:39;6.28;;;2.72;;
76051;SDS011;64751;48.708;9.710;2022-10-31T04:35:07;4.32;;;3.15;;
76051;SDS011;64751;48.708;9.710;2022-10-31T04:37:36;3.22;;;2.53;;
76051;SDS011;64751;48.708;9.710;2022-10-31T04:40:04;5.82;;;3.00;;
76051;SDS011;64751;48.708;9.710;2022-10-31T04:43:04;4.45;;;2.72;;
76051;SDS011;64751;48.708;9.710;2022-10-31T04:45:32;4.93;;;2.13;;
76051;SDS011;64751;48.708;9.710;2022-10-31T04:48:00;5.82;;;2.55;;
76051;SDS011;64751;48.708;9.710;2022-10-31T04:50:33;4.10;;;2.30;;
76051;SDS011;64751;48.708;9.710;2022-10-31T04:53:02;4.53;;;2.50;;
76051;SDS011;64751;48.708;9.710;2022-10-31T04:55:37;2.72;;;2.20;;
76051;SDS011;64751;48.708;9.710;2022-10-31T04:58:24;6.30;;;2.55;;
76051;SDS011;64751;48.708;9.710;2022-10-31T05:00:52;3.45;;;2.20;;
76051;SDS011;64751;48.708;9.710;2022-10-31T05:03:21;4.13;;;2.35;;
76051;SDS011;64751;48.708;9.710;2022-10-31T05:05:50;3.75;;;2.15;;
76051;SDS011;64751;48.708;9.710;2022-10-31T05:08:19;4.75;;;2.28;;
76051;SDS011;64751;48.708;9.710;2022-10-31T05:10:50;3.25;;;2.13;;
76051;SDS011;64751;48.708;9.710;2022-10-31T05:13:18;3.85;;;1.98;;
76051;SDS011;64751;48.708;9.710;2022-10-31T05:16:04;5.70;;;2.53;;
76051;SDS011;64751;48.708;9.710;2022-10-31T05:18:58;2.90;;;2.03;;
76051;SDS011;64751;48.708;9.710;2022-10-31T05:21:29;3.15;;;2.05;;
76051;SDS011;64751;48.708;9.710;2022-10-31T05:24:03;2.70;;;1.80;;
76051;SDS011;64751;48.708;9.710;2022-10-31T05:26:33;3.88;;;1.80;;
76051;SDS011;64751;48.708;9.710;2022-10-31T05:29:01;3.17;;;1.80;;
76051;SDS011;64751;48.708;9.710;2022-10-31T05:31:29;3.67;;;1.98;;
76051;SDS011;64751;48.708;9.710;2022-10-31T05:33:57;3.38;;;2.20;;
76051;SDS011;64751;48.708;9.710;2022-10-31T05:36:43;4.22;;;2.47;;
76051;SDS011;64751;48.708;9.710;2022-10-31T05:39:21;3.40;;;2.22;;
76051;SDS011;64751;48.708;9.710;2022-10-31T05:41:53;2.90;;;2.10;;
76051;SDS011;64751;48.708;9.710;2022-10-31T05:44:25;4.13;;;3.00;;
76051;SDS011;64751;48.708;9.710;2022-10-31T05:47:06;4.13;;;2.50;;
76051;SDS011;64751;48.708;9.710;2022-10-31T05:49:54;2.95;;;2.20;;
76051;SDS011;64751;48.708;9.710;2022-10-31T05:53:00;3.35;;;2.10;;
76051;SDS011;64751;48.708;9.710;2022-10-31T05:55:36;2.78;;;2.05;;
76051;SDS011;64751;48.708;9.710;2022-10-31T05:58:08;3.72;;;2.30;;
76051;SDS011;64751;48.708;9.710;2022-10-31T06:00:37;3.03;;;2.08;;
76051;SDS011;64751;48.708;9.710;2022-10-31T06:03:08;5.25;;;2.40;;
76051;SDS011;64751;48.708;9.710;2022-10-31T06:05:47;5.35;;;2.17;;
76051;SDS011;64751;48.708;9.710;2022-10-31T06:08:15;3.38;;;2.17;;
76051;SDS011;64751;48.708;9.710;2022-10-31T06:10:45;5.03;;;2.17;;
76051;SDS011;64751;48.708;9.710;2022-10-31T06:13:16;4.90;;;2.63;;
76051;SDS011;64751;48.708;9.710;2022-10-31T06:15:47;4.95;;;2.47;;
76051;SDS011;64751;48.708;9.710;2022-10-31T06:18:17;8.10;;;3.67;;
76051;SDS011;64751;48.708;9.710;2022-10-31T06:20:47;5.20;;;3.67;;
76051;SDS011;64751;48.708;9.710;2022-10-31T06:23:15;3.63;;;2.78;;
76051;SDS011;64751;48.708;9.710;2022-10-31T06:25:49;5.63;;;3.08;;
76051;SDS011;64751;48.708;9.710;2022-10-31T06:31:00;5.68;;;2.38;;
76051;SDS011;64751;48.708;9.710;2022-10-31T06:33:27;3.15;;;2.25;;
76051;SDS011;64751;48.708;9.710;2022-10-31T06:35:57;3.33;;;2.25;;
76051;SDS011;64751;48.708;9.710;2022-10-31T06:38:26;4.07;;;2.70;;
76051;SDS011;64751;48.708;9.710;2022-10-31T06:40:56;3.80;;;2.35;;
76051;SDS011;64751;48.708;9.710;2022-10-31T06:43:28;4.05;;;2.70;;
76051;SDS011;64751;48.708;9.710;2022-10-31T06:46:11;2.88;;;2.22;;
76051;SDS011;64751;48.708;9.710;2022-10-31T06:49:09;3.25;;;2.60;;
76051;SDS011;64751;48.708;9.710;2022-10-31T06:51:42;6.65;;;2.60;;
76051;SDS011;64751;48.708;9.710;2022-10-31T06:54:10;3.80;;;2.17;;
76051;SDS011;64751;48.708;9.710;2022-10-31T06:56:39;4.28;;;2.42;;
76051;SDS011;64751;48.708;9.710;2022-10-31T06:59:07;4.68;;;2.70;;
76051;SDS011;64751;48.708;9.710;2022-10-31T07:01:54;3.50;;;2.67;;
76051;SDS011;64751;48.708;9.710;2022-10-31T07:04:22;4.15;;;2.08;;
76051;SDS011;64751;48.708;9.710;2022-10-31T07:06:50;2.80;;;2.05;;
76051;SDS011;64751;48.708;9.710;2022-10-31T07:09:19;4.55;;;2.30;;
76051;SDS011;64751;48.708;9.710;2022-10-31T07:11:48;4.22;;;2.38;;
76051;SDS011;64751;48.708;9.710;2022-10-31T07:14:18;3.78;;;2.20;;
76051;SDS011;64751;48.708;9.710;2022-10-31T07:16:50;5.20;;;2.47;;
76051;SDS011;64751;48.708;9.710;2022-10-31T07:19:23;4.75;;;2.72;;
76051;SDS011;64751;48.708;9.710;2022-10-31T07:21:51;3.75;;;3.00;;
76051;SDS011;64751;48.708;9.710;2022-10-31T07:24:18;4.00;;;2.50;;
76051;SDS011;64751;48.708;9.710;2022-10-31T07:27:19;3.97;;;2.72;;
76051;SDS011;64751;48.708;9.710;2022-10-31T07:29:48;4.88;;;2.88;;
76051;SDS011;64751;48.708;9.710;2022-10-31T07:32:16;5.18;;;2.78;;
76051;SDS011;64751;48.708;9.710;2022-10-31T07:34:51;7.28;;;3.00;;
76051;SDS011;64751;48.708;9.710;2022-10-31T07:37:21;4.85;;;2.88;;
76051;SDS011;64751;48.708;9.710;2022-10-31T07:39:50;6.10;;;3.08;;
76051;SDS011;64751;48.708;9.710;2022-10-31T07:42:17;5.95;;;3.00;;
76051;SDS011;64751;48.708;9.710;2022-10-31T07:44:47;6.07;;;2.88;;
76051;SDS011;64751;48.708;9.710;2022-10-31T07:47:40;4.72;;;2.75;;
76051;SDS011;64751;48.708;9.710;2022-10-31T07:50:27;7.18;;;3.42;;
76051;SDS011;64751;48.708;9.710;2022-10-31T07:53:14;6.20;;;3.20;;
76051;SDS011;64751;48.708;9.710;2022-10-31T07:55:42;5.28;;;3.15;;
76051;SDS011;64751;48.708;9.710;2022-10-31T07:58:13;6.40;;;3.30;;
76051;SDS011;64751;48.708;9.710;2022-10-31T08:00:43;5.93;;;3.90;;
76051;SDS011;64751;48.708;9.710;2022-10-31T08:03:17;4.70;;;3.92;;
76051;SDS011;64751;48.708;9.710;2022-10-31T08:06:04;7.63;;;3.80;;
76051;SDS011;64751;48.708;9.710;2022-10-31T08:08:38;4.72;;;3.03;;
76051;SDS011;64751;48.708;9.710;2022-10-31T08:11:07;6.57;;;3.80;;
76051;SDS011;64751;48.708;9.710;2022-10-31T08:13:35;7.68;;;4.15;;
76051;SDS011;64751;48.708;9.710;2022-10-31T08:16:04;5.95;;;4.18;;
76051;SDS011;64751;48.708;9.710;2022-10-31T08:18:36;7.53;;;5.05;;
76051;SDS011;64751;48.708;9.710;2022-10-31T08:21:05;7.53;;;4.45;;
76051;SDS011;64751;48.708;9.710;2022-10-31T08:23:33;6.82;;;4.25;;
76051;SDS011;64751;48.708;9.710;2022-10-31T08:26:01;7.63;;;3.97;;
76051;SDS011;64751;48.708;9.710;2022-10-31T08:28:30;7.53;;;3.75;;
76051;SDS011;64751;48.708;9.710;2022-10-31T08:30:58;5.55;;;3.72;;
76051;SDS011;64751;48.708;9.710;2022-10-31T08:33:42;7.85;;;3.90;;
76051;SDS011;64751;48.708;9.710;2022-10-31T08:36:16;8.73;;;4.75;;
76051;SDS011;64751;48.708;9.710;2022-10-31T08:39:02;7.32;;;3.70;;
76051;SDS011;64751;48.708;9.710;2022-10-31T08:41:30;6.32;;;3.72;;
76051;SDS011;64751;48.708;9.710;2022-10-31T08:43:59;6.20;;;3.83;;
76051;SDS011;64751;48.708;9.710;2022-10-31T08:46:27;15.23;;;9.65;;
76051;SDS011;64751;48.708;9.710;2022-10-31T08:48:56;10.00;;;6.55;;
76051;SDS011;64751;48.708;9.710;2022-10-31T08:51:23;10.45;;;5.38;;
76051;SDS011;64751;48.708;9.710;2022-10-31T08:53:54;9.88;;;4.93;;
76051;SDS011;64751;48.708;9.710;2022-10-31T08:56:24;9.20;;;4.68;;
76051;SDS011;64751;48.708;9.710;2022-10-31T08:58:52;9.27;;;4.18;;
76051;SDS011;64751;48.708;9.710;2022-10-31T09:01:29;7.32;;;5.22;;
76051;SDS011;64751;48.708;9.710;2022-10-31T09:03:59;8.32;;;4.00;;
76051;SDS011;64751;48.708;9.710;2022-10-31T09:06:26;6.20;;;4.28;;
76051;SDS011;64751;48.708;9.710;2022-10-31T09:08:54;9.60;;;4.82;;
76051;SDS011;64751;48.708;9.710;2022-10-31T09:11:25;10.82;;;5.18;;
76051;SDS011;64751;48.708;9.710;2022-10-31T09:14:10;7.05;;;4.47;;
76051;SDS011;64751;48.708;9.710;2022-10-31T09:16:38;7.32;;;4.95;;
76051;SDS011;64751;48.708;9.710;2022-10-31T09:19:12;8.65;;;4.75;;
76051;SDS011;64751;48.708;9.710;2022-10-31T09:21:44;8.77;;;4.57;;
76051;SDS011;64751;48.708;9.710;2022-10-31T09:24:12;7.65;;;5.25;;
76051;SDS011;64751;48.708;9.710;2022-10-31T09:26:41;11.65;;;5.97;;
76051;SDS011;64751;48.708;9.710;2022-10-31T09:29:25;7.78;;;5.80;;
76051;SDS011;64751;48.708;9.710;2022-10-31T09:34:30;8.38;;;5.03;;
76051;SDS011;64751;48.708;9.710;2022-10-31T09:37:19;8.40;;;4.82;;
76051;SDS011;64751;48.708;9.710;2022-10-31T09:39:47;10.75;;;5.15;;
76051;SDS011;64751;48.708;9.710;2022-10-31T09:42:26;14.40;;;6.20;;
76051;SDS011;64751;48.708;9.710;2022-10-31T09:45:07;12.48;;;5.78;;
76051;SDS011;64751;48.708;9.710;2022-10-31T09:47:46;11.38;;;7.13;;
76051;SDS011;64751;48.708;9.710;2022-10-31T09:50:31;10.82;;;6.13;;
76051;SDS011;64751;48.708;9.710;2022-10-31T09:53:27;12.63;;;7.13;;
76051;SDS011;64751;48.708;9.710;2022-10-31T09:56:01;9.98;;;6.78;;
76051;SDS011;64751;48.708;9.710;2022-10-31T09:58:37;13.07;;;8.10;;
76051;SDS011;64751;48.708;9.710;2022-10-31T10:01:11;10.70;;;6.47;;
76051;SDS011;64751;48.708;9.710;2022-10-31T10:03:50;10.48;;;6.88;;
76051;SDS011;64751;48.708;9.710;2022-10-31T10:06:43;11.95;;;6.50;;
76051;SDS011;64751;48.708;9.710;2022-10-31T10:09:32;10.52;;;5.82;;
76051;SDS011;64751;48.708;9.710;2022-10-31T10:12:40;9.10;;;6.03;;
76051;SDS011;64751;48.708;9.710;2022-10-31T10:15:27;8.73;;;5.90;;
76051;SDS011;64751;48.708;9.710;2022-10-31T10:18:04;11.50;;;6.00;;
76051;SDS011;64751;48.708;9.710;2022-10-31T10:20:40;7.75;;;5.57;;
76051;SDS011;64751;48.708;9.710;2022-10-31T10:23:29;11.70;;;6.45;;
76051;SDS011;64751;48.708;9.710;2022-10-31T10:26:07;9.25;;;5.72;;
76051;SDS011;64751;48.708;9.710;2022-10-31T10:28:43;10.05;;;6.60;;
76051;SDS011;64751;48.708;9.710;2022-10-31T10:31:13;12.15;;;6.40;;
76051;SDS011;64751;48.708;9.710;2022-10-31T10:33:46;10.05;;;6.10;;
76051;SDS011;64751;48.708;9.710;2022-10-31T10:36:26;8.05;;;5.72;;
76051;SDS011;64751;48.708;9.710;2022-10-31T10:41:41;8.02;;;4.93;;
76051;SDS011;64751;48.708;9.710;2022-10-31T10:46:42;10.07;;;5.85;;
76051;SDS011;64751;48.708;9.710;2022-10-31T10:49:30;8.43;;;5.78;;
76051;SDS011;64751;48.708;9.710;2022-10-31T10:52:05;8.90;;;5.22;;
76051;SDS011;64751;48.708;9.710;2022-10-31T10:54:49;9.30;;;5.45;;
76051;SDS011;64751;48.708;9.710;2022-10-31T10:57:29;9.57;;;5.40;;
76051;SDS011;64751;48.708;9.710;2022-10-31T11:00:14;15.68;;;6.25;;
76051;SDS011;64751;48.708;9.710;2022-10-31T11:02:44;9.18;;;4.82;;
76051;SDS011;64751;48.708;9.710;2022-10-31T11:05:13;9.32;;;5.32;;
76051;SDS011;64751;48.708;9.710;2022-10-31T11:07:47;9.07;;;5.32;;
76051;SDS011;64751;48.708;9.710;2022-10-31T11:10:16;9.30;;;4.65;;
76051;SDS011;64751;48.708;9.710;2022-10-31T11:12:45;10.48;;;5.20;;
76051;SDS011;64751;48.708;9.710;2022-10-31T11:15:26;11.82;;;5.47;;
76051;SDS011;64751;48.708;9.710;2022-10-31T11:17:57;10.63;;;5.93;;
76051;SDS011;64751;48.708;9.710;2022-10-31T11:20:28;8.80;;;4.53;;
76051;SDS011;64751;48.708;9.710;2022-10-31T11:23:02;9.07;;;5.85;;
76051;SDS011;64751;48.708;9.710;2022-10-31T11:25:33;10.15;;;5.25;;
76051;SDS011;64751;48.708;9.710;2022-10-31T11:28:01;7.72;;;5.30;;
76051;SDS011;64751;48.708;9.710;2022-10-31T11:30:30;10.90;;;5.45;;
76051;SDS011;64751;48.708;9.710;2022-10-31T11:33:02;11.13;;;5.90;;
76051;SDS011;64751;48.708;9.710;2022-10-31T11:35:31;9.60;;;5.57;;
76051;SDS011;64751;48.708;9.710;2022-10-31T11:37:58;7.78;;;5.15;;
76051;SDS011;64751;48.708;9.710;2022-10-31T11:40:27;8.43;;;5.78;;
76051;SDS011;64751;48.708;9.710;2022-10-31T11:42:57;9.77;;;5.93;;
76051;SDS011;64751;48.708;9.710;2022-10-31T11:45:28;10.45;;;5.45;;
76051;SDS011;64751;48.708;9.710;2022-10-31T11:47:58;11.88;;;5.53;;
76051;SDS011;64751;48.708;9.710;2022-10-31T11:50:31;8.82;;;5.18;;
76051;SDS011;64751;48.708;9.710;2022-10-31T11:53:02;9.27;;;5.95;;
76051;SDS011;64751;48.708;9.710;2022-10-31T11:55:31;8.85;;;5.28;;
76051;SDS011;64751;48.708;9.710;2022-10-31T11:58:01;10.25;;;5.75;;
76051;SDS011;64751;48.708;9.710;2022-10-31T12:00:30;11.00;;;6.50;;
76051;SDS011;64751;48.708;9.710;2022-10-31T12:05:58;8.93;;;5.88;;
76051;SDS011;64751;48.708;9.710;2022-10-31T12:08:30;12.38;;;8.63;;
76051;SDS011;64751;48.708;9.710;2022-10-31T12:11:02;8.90;;;5.97;;
76051;SDS011;64751;48.708;9.710;2022-10-31T12:13:39;12.00;;;5.82;;
76051;SDS011;64751;48.708;9.710;2022-10-31T12:16:20;10.70;;;5.20;;
76051;SDS011;64751;48.708;9.710;2022-10-31T12:18:57;11.80;;;5.93;;
76051;SDS011;64751;48.708;9.710;2022-10-31T12:21:32;8.65;;;5.68;;
76051;SDS011;64751;48.708;9.710;2022-10-31T12:24:11;9.75;;;5.78;;
76051;SDS011;64751;48.708;9.710;2022-10-31T12:26:48;11.65;;;5.72;;
76051;SDS011;64751;48.708;9.710;2022-10-31T12:29:28;9.00;;;5.70;;
76051;SDS011;64751;48.708;9.710;2022-10-31T12:32:17;9.13;;;5.75;;
76051;SDS011;64751;48.708;9.710;2022-10-31T12:35:01;9.15;;;5.13;;
76051;SDS011;64751;48.708;9.710;2022-10-31T12:37:50;8.48;;;5.60;;
76051;SDS011;64751;48.708;9.710;2022-10-31T12:40:28;10.15;;;6.25;;
76051;SDS011;64751;48.708;9.710;2022-10-31T12:43:17;11.93;;;6.25;;
76051;SDS011;64751;48.708;9.710;2022-10-31T12:46:00;10.90;;;6.97;;
76051;SDS011;64751;48.708;9.710;2022-10-31T12:48:37;12.65;;;6.07;;
76051;SDS011;64751;48.708;9.710;2022-10-31T12:51:15;13.02;;;5.63;;
76051;SDS011;64751;48.708;9.710;2022-10-31T12:53:57;9.90;;;6.00;;
76051;SDS011;64751;48.708;9.710;2022-10-31T12:56:41;10.05;;;5.20;;
76051;SDS011;64751;48.708;9.710;2022-10-31T12:59:24;9.95;;;6.57;;
76051;SDS011;64751;48.708;9.710;2022-10-31T13:02:01;12.98;;;6.50;;
76051;SDS011;64751;48.708;9.710;2022-10-31T13:04:35;13.10;;;6.93;;
76051;SDS011;64751;48.708;9.710;2022-10-31T13:07:09;11.23;;;7.30;;
76051;SDS011;64751;48.708;9.710;2022-10-31T13:09:42;11.02;;;7.43;;
76051;SDS011;64751;48.708;9.710;2022-10-31T13:12:15;11.77;;;7.57;;
76051;SDS011;64751;48.708;9.710;2022-10-31T13:14:47;9.98;;;6.75;;
76051;SDS011;64751;48.708;9.710;2022-10-31T13:17:22;8.48;;;5.70;;
76051;SDS011;64751;48.708;9.710;2022-10-31T13:19:57;10.73;;;6.45;;
76051;SDS011;64751;48.708;9.710;2022-10-31T13:22:40;10.15;;;6.82;;
76051;SDS011;64751;48.708;9.710;2022-10-31T13:25:12;11.75;;;6.78;;
76051;SDS011;64751;48.708;9.710;2022-10-31T13:27:45;10.27;;;7.05;;
76051;SDS011;64751;48.708;9.710;2022-10-31T13:30:16;9.85;;;6.03;;
76051;SDS011;64751;48.708;9.710;2022-10-31T13:32:48;10.05;;;6.05;;
76051;SDS011;64751;48.708;9.710;2022-10-31T13:35:20;9.25;;;5.85;;
76051;SDS011;64751;48.708;9.710;2022-10-31T13:37:56;10.95;;;6.78;;
76051;SDS011;64751;48.708;9.710;2022-10-31T13:40:39;12.82;;;7.43;;
76051;SDS011;64751;48.708;9.710;2022-10-31T13:43:16;12.25;;;6.85;;
76051;SDS011;64751;48.708;9.710;2022-10-31T13:45:50;9.57;;;6.53;;
76051;SDS011;64751;48.708;9.710;2022-10-31T13:48:32;15.13;;;6.63;;
76051;SDS011;64751;48.708;9.710;2022-10-31T13:51:03;12.30;;;6.93;;
76051;SDS011;64751;48.708;9.710;2022-10-31T13:53:37;10.77;;;6.80;;
76051;SDS011;64751;48.708;9.710;2022-10-31T13:56:12;11.05;;;6.55;;
76051;SDS011;64751;48.708;9.710;2022-10-31T14:01:50;15.30;;;7.38;;
76051;SDS011;64751;48.708;9.710;2022-10-31T14:04:22;10.60;;;6.65;;
76051;SDS011;64751;48.708;9.710;2022-10-31T14:06:53;12.85;;;6.70;;
76051;SDS011;64751;48.708;9.710;2022-10-31T14:09:27;14.18;;;7.07;;
76051;SDS011;64751;48.708;9.710;2022-10-31T14:11:57;17.50;;;7.40;;
76051;SDS011;64751;48.708;9.710;2022-10-31T14:14:33;11.40;;;6.53;;
76051;SDS011;64751;48.708;9.710;2022-10-31T14:17:15;10.88;;;6.80;;
76051;SDS011;64751;48.708;9.710;2022-10-31T14:22:55;9.20;;;6.35;;
76051;SDS011;64751;48.708;9.710;2022-10-31T14:25:24;15.20;;;7.38;;
76051;SDS011;64751;48.708;9.710;2022-10-31T14:27:53;13.73;;;7.00;;
76051;SDS011;64751;48.708;9.710;2022-10-31T14:30:22;14.13;;;6.78;;
76051;SDS011;64751;48.708;9.710;2022-10-31T14:32:53;13.50;;;6.88;;
76051;SDS011;64751;48.708;9.710;2022-10-31T14:35:24;11.30;;;6.22;;
76051;SDS011;64751;48.708;9.710;2022-10-31T14:38:00;14.98;;;7.43;;
76051;SDS011;64751;48.708;9.710;2022-10-31T14:40:40;13.85;;;7.53;;
76051;SDS011;64751;48.708;9.710;2022-10-31T14:43:25;9.68;;;6.63;;
76051;SDS011;64751;48.708;9.710;2022-10-31T14:46:07;9.43;;;7.13;;
76051;SDS011;64751;48.708;9.710;2022-10-31T14:48:51;10.07;;;6.85;;
76051;SDS011;64751;48.708;9.710;2022-10-31T14:51:33;9.77;;;5.95;;
76051;SDS011;64751;48.708;9.710;2022-10-31T14:54:07;11.75;;;7.15;;
76051;SDS011;64751;48.708;9.710;2022-10-31T14:56:43;9.45;;;6.63;;
76051;SDS011;64751;48.708;9.710;2022-10-31T14:59:17;12.57;;;7.18;;
76051;SDS011;64751;48.708;9.710;2022-10-31T15:01:53;16.25;;;7.43;;
76051;SDS011;64751;48.708;9.710;2022-10-31T15:04:25;12.93;;;7.18;;
76051;SDS011;64751;48.708;9.710;2022-10-31T15:06:57;11.30;;;6.35;;
76051;SDS011;64751;48.708;9.710;2022-10-31T15:09:31;8.93;;;6.28;;
76051;SDS011;64751;48.708;9.710;2022-10-31T15:12:00;11.60;;;6.60;;
76051;SDS011;64751;48.708;9.710;2022-10-31T15:14:43;11.13;;;6.30;;
76051;SDS011;64751;48.708;9.710;2022-10-31T15:17:11;13.35;;;6.75;;
76051;SDS011;64751;48.708;9.710;2022-10-31T15:19:39;14.18;;;8.45;;
76051;SDS011;64751;48.708;9.710;2022-10-31T15:22:07;22.63;;;12.38;;
76051;SDS011;64751;48.708;9.710;2022-10-31T15:24:42;17.58;;;10.40;;
76051;SDS011;64751;48.708;9.710;2022-10-31T15:27:12;17.92;;;9.77;;
76051;SDS011;64751;48.708;9.710;2022-10-31T15:29:47;12.98;;;7.85;;
76051;SDS011;64751;48.708;9.710;2022-10-31T15:32:18;12.07;;;7.03;;
76051;SDS011;64751;48.708;9.710;2022-10-31T15:34:48;13.82;;;7.05;;
76051;SDS011;64751;48.708;9.710;2022-10-31T15:37:17;14.27;;;6.50;;
76051;SDS011;64751;48.708;9.710;2022-10-31T15:39:49;13.00;;;7.50;;
76051;SDS011;64751;48.708;9.710;2022-10-31T15:42:17;13.52;;;7.80;;
76051;SDS011;64751;48.708;9.710;2022-10-31T15:44:48;9.18;;;6.15;;
76051;SDS011;64751;48.708;9.710;2022-10-31T15:47:19;11.98;;;6.30;;